Terminal Aerodrome Forecast
Issued by NWS Jackson, MS

Home | Current Version | Previous Version | Text Only | Print | Product List | Glossary On
Versions: 1 2 3 4 5 6 7 8 9 10 11 12 13 14 15 16 17
000
FTUS44 KJAN 212300
TAFMEI
TAF
KMEI 212320Z 2200/2224 13003KT P6SM OVC007
     FM220600 00000KT 4SM BR OVC005
     FM220800 00000KT 2SM BR OVC003
     FM221100 17004KT 1 1/2SM BR OVC003
     FM221300 17008KT 4SM BR OVC007
     FM221500 17008KT P6SM OVC007
     FM221900 17007KT P6SM OVC015=

USA.gov is the U.S. government's official web portal to all federal, state and local government web resources and services.